createdAt,value
2019-04-26T00:01:02.190Z,46.06
2019-04-26T00:03:44.726Z,46.41
2019-04-26T00:06:14.640Z,46.00
2019-04-26T00:08:44.881Z,46.90
2019-04-26T00:11:18.378Z,46.74
2019-04-26T00:14:00.389Z,46.16
2019-04-26T00:16:30.577Z,46.56
2019-04-26T00:18:59.250Z,46.11
2019-04-26T00:21:27.809Z,46.39
2019-04-26T00:23:56.744Z,46.62
2019-04-26T00:26:25.487Z,46.96
2019-04-26T00:28:54.004Z,47.06
2019-04-26T00:31:22.512Z,48.16
2019-04-26T00:33:51.023Z,49.32
2019-04-26T00:36:20.768Z,47.54
2019-04-26T00:38:49.505Z,46.31
2019-04-26T00:41:18.658Z,45.24
2019-04-26T00:43:47.422Z,45.18
2019-04-26T00:46:17.042Z,45.60
2019-04-26T00:48:46.529Z,45.28
2019-04-26T00:51:17.280Z,45.00
2019-04-26T00:53:48.366Z,45.48
2019-04-26T00:56:17.998Z,46.12
2019-04-26T00:58:47.097Z,46.12
2019-04-26T01:01:17.288Z,46.28
2019-04-26T01:03:46.017Z,45.35
2019-04-26T01:06:17.035Z,44.58
2019-04-26T01:08:45.588Z,44.91
2019-04-26T01:11:16.173Z,45.30
2019-04-26T01:13:44.343Z,45.52
2019-04-26T01:16:12.878Z,45.88
2019-04-26T01:18:43.011Z,45.91
2019-04-26T01:21:12.835Z,45.94
2019-04-26T01:23:43.810Z,45.95
2019-04-26T01:26:19.149Z,46.47
2019-04-26T01:28:56.876Z,48.45
2019-04-26T01:31:28.689Z,49.33
2019-04-26T01:33:57.358Z,48.02
2019-04-26T01:36:29.422Z,47.24
2019-04-26T01:39:01.022Z,47.83
2019-04-26T01:41:34.392Z,48.22
2019-04-26T01:44:21.774Z,48.37
2019-04-26T01:46:52.037Z,48.40
2019-04-26T01:49:24.160Z,48.89
2019-04-26T01:52:10.517Z,50.17
2019-04-26T01:54:44.582Z,50.20
2019-04-26T01:57:14.313Z,50.02
2019-04-26T01:59:47.521Z,48.43
2019-04-26T02:02:35.732Z,50.56
2019-04-26T02:05:10.056Z,48.65
2019-04-26T02:07:39.037Z,49.44
2019-04-26T02:10:13.419Z,47.83
2019-04-26T02:12:44.604Z,47.56
2019-04-26T02:15:12.688Z,47.11
2019-04-26T02:17:42.531Z,45.69
2019-04-26T02:20:12.110Z,44.62
2019-04-26T02:22:45.777Z,44.90
2019-04-26T02:25:14.397Z,44.87
2019-04-26T02:27:43.066Z,45.04
2019-04-26T02:30:11.713Z,44.43
2019-04-26T02:32:40.872Z,45.08
2019-04-26T02:35:09.903Z,45.97
2019-04-26T02:37:39.031Z,47.43
2019-04-26T02:40:13.322Z,47.19
2019-04-26T02:42:43.765Z,48.65
2019-04-26T02:45:28.321Z,49.19
2019-04-26T02:48:15.371Z,49.16
2019-04-26T02:50:50.997Z,49.04
2019-04-26T02:53:22.562Z,49.88
2019-04-26T02:56:08.593Z,48.72
2019-04-26T02:58:51.946Z,48.05
2019-04-26T03:01:20.692Z,48.05
2019-04-26T03:03:53.458Z,47.86
2019-04-26T03:06:20.639Z,47.50
2019-04-26T03:08:50.759Z,48.12
2019-04-26T03:11:22.322Z,47.47
2019-04-26T03:13:55.503Z,47.43
2019-04-26T03:16:28.705Z,47.55
2019-04-26T03:19:07.678Z,47.07
2019-04-26T03:21:39.416Z,47.84
2019-04-26T03:24:19.895Z,47.03
2019-04-26T03:27:08.062Z,47.75
2019-04-26T03:29:51.771Z,47.48
2019-04-26T03:32:33.879Z,47.48
2019-04-26T03:35:27.600Z,48.21
2019-04-26T03:38:09.572Z,48.57
2019-04-26T03:40:44.503Z,49.05
2019-04-26T03:43:28.013Z,49.95
2019-04-26T03:46:16.006Z,49.73
2019-04-26T03:48:53.790Z,50.02
2019-04-26T03:51:41.229Z,49.63
2019-04-26T03:54:19.849Z,50.85
2019-04-26T03:56:55.614Z,50.68
2019-04-26T03:59:38.980Z,50.70
2019-04-26T04:02:15.690Z,49.89
2019-04-26T04:04:57.786Z,50.02
2019-04-26T04:07:39.865Z,50.53
2019-04-26T04:10:14.464Z,49.42
2019-04-26T04:12:57.862Z,49.83
2019-04-26T04:15:29.684Z,49.45
2019-04-26T04:18:08.749Z,49.81
2019-04-26T04:20:56.361Z,49.79
2019-04-26T04:23:27.928Z,50.32
2019-04-26T04:25:57.246Z,50.79
2019-04-26T04:28:42.518Z,50.70
2019-04-26T04:31:19.918Z,50.61
2019-04-26T04:34:06.763Z,50.10
2019-04-26T04:36:42.294Z,49.78
2019-04-26T04:39:14.572Z,49.81
2019-04-26T04:42:24.510Z,48.92
2019-04-26T04:45:14.862Z,48.03
2019-04-26T04:48:30.694Z,47.26
2019-04-26T04:51:11.228Z,46.53
2019-04-26T04:53:49.725Z,47.77
2019-04-26T04:56:30.432Z,46.09
2019-04-26T04:59:01.982Z,44.48
2019-04-26T05:01:44.193Z,44.29
2019-04-26T05:04:35.173Z,42.94
2019-04-26T05:07:29.701Z,43.04
2019-04-26T05:10:10.444Z,42.02
2019-04-26T05:12:52.092Z,42.68
2019-04-26T05:15:40.896Z,41.85
2019-04-26T05:18:27.462Z,41.79
2019-04-26T05:21:10.657Z,42.43
2019-04-26T05:23:48.970Z,42.56
2019-04-26T05:26:24.673Z,42.98
2019-04-26T05:29:31.122Z,42.50
2019-04-26T05:32:28.196Z,42.57
2019-04-26T05:35:51.449Z,43.00
2019-04-26T05:38:40.614Z,42.74
2019-04-26T05:41:42.840Z,43.40
2019-04-26T05:44:38.670Z,41.97
2019-04-26T05:47:29.950Z,41.42
2019-04-26T05:50:40.229Z,41.22
2019-04-26T05:53:16.265Z,41.45
2019-04-26T05:56:18.366Z,40.56
2019-04-26T05:58:57.444Z,41.03
2019-04-26T06:01:46.407Z,41.47
2019-04-26T06:04:25.291Z,41.40
2019-04-26T06:07:16.170Z,40.68
2019-04-26T06:09:56.473Z,40.49
2019-04-26T06:12:38.706Z,40.62
2019-04-26T06:15:26.243Z,40.19
2019-04-26T06:18:11.064Z,39.92
2019-04-26T06:20:52.621Z,40.19
2019-04-26T06:23:42.919Z,39.61
2019-04-26T06:26:33.806Z,40.37
2019-04-26T06:29:32.727Z,40.15
2019-04-26T06:32:29.971Z,40.07
2019-04-26T06:35:20.034Z,39.97
2019-04-26T06:38:26.982Z,40.35
2019-04-26T06:41:21.710Z,40.04
2019-04-26T06:44:00.774Z,40.48
2019-04-26T06:46:39.589Z,40.08
2019-04-26T06:49:18.606Z,39.35
2019-04-26T06:52:02.595Z,39.61
2019-04-26T06:54:36.854Z,39.05
2019-04-26T06:57:27.892Z,38.30
2019-04-26T07:00:10.341Z,37.93
2019-04-26T07:03:10.529Z,37.64
2019-04-26T07:05:42.059Z,38.44
2019-04-26T07:08:25.519Z,39.10
2019-04-26T07:11:11.757Z,37.82
2019-04-26T07:13:59.302Z,37.47
2019-04-26T07:16:37.846Z,35.93
2019-04-26T07:19:31.991Z,35.83
2019-04-26T07:22:16.621Z,36.21
2019-04-26T07:25:09.055Z,35.76
2019-04-26T07:27:43.536Z,34.01
2019-04-26T07:30:32.947Z,36.58
2019-04-26T07:33:31.801Z,36.87
2019-04-26T07:36:12.051Z,35.54
2019-04-26T07:39:16.699Z,36.25
2019-04-26T07:42:01.687Z,36.88
2019-04-26T07:44:37.732Z,35.67
2019-04-26T07:47:25.576Z,34.40
2019-04-26T07:50:09.447Z,33.13
2019-04-26T07:52:53.129Z,32.73
2019-04-26T07:55:45.863Z,32.89
2019-04-26T07:58:29.167Z,32.25
2019-04-26T08:01:37.392Z,32.43
2019-04-26T08:04:11.524Z,32.34
2019-04-26T08:06:58.335Z,33.02
2019-04-26T08:09:29.000Z,33.24
2019-04-26T08:12:06.112Z,33.00
2019-04-26T08:14:50.851Z,30.91
2019-04-26T08:17:29.511Z,31.05
2019-04-26T08:20:01.848Z,30.08
2019-04-26T08:22:33.835Z,31.73
2019-04-26T08:25:06.683Z,29.40
2019-04-26T08:27:36.353Z,30.46
2019-04-26T08:30:17.443Z,29.98
2019-04-26T08:32:54.010Z,29.64
2019-04-26T08:35:27.165Z,28.79
2019-04-26T08:37:58.748Z,29.27
2019-04-26T08:40:31.303Z,29.55
2019-04-26T08:43:16.396Z,29.40
2019-04-26T08:46:03.152Z,29.21
2019-04-26T08:48:32.377Z,28.96
2019-04-26T08:51:04.964Z,28.62
2019-04-26T08:53:36.462Z,28.92
2019-04-26T08:56:07.343Z,28.61
2019-04-26T08:58:38.932Z,27.11
2019-04-26T09:01:12.141Z,28.04
2019-04-26T09:03:45.334Z,27.18
2019-04-26T09:06:21.721Z,26.74
2019-04-26T09:08:53.318Z,25.94
2019-04-26T09:11:30.183Z,26.74
2019-04-26T09:13:57.746Z,27.27
2019-04-26T09:16:26.441Z,27.98
2019-04-26T09:18:59.416Z,28.28
2019-04-26T09:21:28.922Z,28.44
2019-04-26T09:24:01.656Z,28.92
2019-04-26T09:26:42.476Z,28.99
2019-04-26T09:29:21.417Z,27.37
2019-04-26T09:32:00.146Z,26.33
2019-04-26T09:34:41.319Z,27.61
2019-04-26T09:37:10.536Z,27.86
2019-04-26T09:39:41.613Z,27.17
2019-04-26T09:42:10.994Z,27.26
2019-04-26T09:44:59.625Z,25.96
2019-04-26T09:47:29.792Z,25.85
2019-04-26T09:50:18.286Z,26.42
2019-04-26T09:52:48.491Z,26.80
2019-04-26T09:55:17.049Z,27.32
2019-04-26T09:57:45.613Z,27.98
2019-04-26T10:00:19.027Z,27.91
2019-04-26T10:02:47.548Z,28.53
2019-04-26T10:05:17.678Z,28.45
2019-04-26T10:07:46.483Z,27.92
2019-04-26T10:10:22.658Z,26.29
2019-04-26T10:12:48.633Z,26.19
2019-04-26T10:15:35.269Z,27.00
2019-04-26T10:18:04.560Z,27.59
2019-04-26T10:20:33.220Z,27.06
2019-04-26T10:23:01.724Z,25.60
2019-04-26T10:25:30.571Z,25.46
2019-04-26T10:27:59.068Z,25.82
2019-04-26T10:30:27.596Z,25.02
2019-04-26T10:32:58.254Z,25.32
2019-04-26T10:35:26.325Z,25.57
2019-04-26T10:37:54.889Z,25.51
2019-04-26T10:40:35.098Z,26.32
2019-04-26T10:42:53.730Z,25.90
2019-04-26T10:45:22.786Z,27.63
2019-04-26T10:47:52.080Z,27.45
2019-04-26T10:50:21.255Z,26.93
2019-04-26T10:52:57.107Z,28.40
2019-04-26T10:55:39.479Z,28.24
2019-04-26T10:58:21.432Z,28.54
2019-04-26T11:00:52.763Z,28.89
2019-04-26T11:03:22.113Z,28.88
2019-04-26T11:05:53.679Z,29.67
2019-04-26T11:08:21.267Z,30.81
2019-04-26T11:10:50.128Z,30.00
2019-04-26T11:13:18.701Z,30.16
2019-04-26T11:15:47.453Z,29.50
2019-04-26T11:18:19.902Z,30.33
2019-04-26T11:20:46.723Z,29.47
2019-04-26T11:23:15.375Z,29.56
2019-04-26T11:25:43.864Z,29.62
2019-04-26T11:28:12.358Z,29.02
2019-04-26T11:30:41.145Z,28.97
2019-04-26T11:33:10.995Z,29.01
2019-04-26T11:35:39.858Z,30.26
2019-04-26T11:38:08.656Z,30.65
2019-04-26T11:40:37.778Z,30.04
2019-04-26T11:43:06.351Z,28.79
2019-04-26T11:45:34.871Z,29.06
2019-04-26T11:48:03.490Z,28.16
2019-04-26T11:50:31.966Z,28.00
2019-04-26T11:53:00.493Z,27.70
2019-04-26T11:55:29.673Z,26.53
2019-04-26T11:57:59.200Z,25.19
2019-04-26T12:00:29.670Z,24.20
2019-04-26T12:02:58.159Z,25.18
2019-04-26T12:05:37.353Z,24.87
2019-04-26T12:08:16.753Z,25.24
2019-04-26T12:10:45.903Z,25.20
2019-04-26T12:13:14.479Z,25.61
2019-04-26T12:15:43.974Z,24.69
2019-04-26T12:18:13.230Z,23.77
2019-04-26T12:20:41.754Z,25.05
2019-04-26T12:23:13.719Z,25.24
2019-04-26T12:25:43.577Z,25.62
2019-04-26T12:28:13.906Z,25.95
2019-04-26T12:30:42.475Z,26.08
2019-04-26T12:33:10.966Z,25.18
2019-04-26T12:35:39.457Z,25.25
2019-04-26T12:38:07.977Z,25.48
2019-04-26T12:40:36.473Z,26.37
2019-04-26T12:43:05.114Z,26.75
2019-04-26T12:45:35.243Z,25.59
2019-04-26T12:48:07.909Z,26.80
2019-04-26T12:50:37.727Z,28.00
2019-04-26T12:53:05.977Z,27.89
2019-04-26T12:55:34.540Z,28.41
2019-04-26T12:58:03.075Z,29.19
2019-04-26T13:00:32.923Z,28.34
2019-04-26T13:03:03.590Z,28.99
2019-04-26T13:05:33.640Z,30.17
2019-04-26T13:08:02.233Z,29.29
2019-04-26T13:10:35.384Z,30.65
2019-04-26T13:13:06.909Z,29.77
2019-04-26T13:16:01.718Z,31.32
2019-04-26T13:18:31.391Z,29.80
2019-04-26T13:21:02.958Z,30.15
2019-04-26T13:23:31.348Z,29.71
2019-04-26T13:26:01.426Z,29.73
2019-04-26T13:28:30.259Z,28.82
2019-04-26T13:31:01.921Z,29.76
2019-04-26T13:33:29.269Z,28.35
2019-04-26T13:36:03.152Z,29.03
2019-04-26T13:38:31.686Z,28.99
2019-04-26T13:41:04.819Z,28.87
2019-04-26T13:43:30.477Z,27.53
2019-04-26T13:46:04.745Z,28.49
2019-04-26T13:48:49.778Z,28.72
2019-04-26T13:51:21.355Z,28.52
2019-04-26T13:53:54.422Z,26.42
2019-04-26T13:56:26.366Z,27.00
2019-04-26T13:58:58.348Z,27.00
2019-04-26T14:01:26.046Z,26.39
2019-04-26T14:03:55.893Z,25.69
2019-04-26T14:06:26.538Z,26.53
2019-04-26T14:08:58.121Z,27.45
2019-04-26T14:11:28.037Z,27.22
2019-04-26T14:14:00.176Z,26.36
2019-04-26T14:16:27.495Z,25.61
2019-04-26T14:18:56.125Z,26.46
2019-04-26T14:21:24.677Z,26.10
2019-04-26T14:24:11.103Z,26.10
2019-04-26T14:26:41.510Z,26.68
2019-04-26T14:29:10.126Z,27.08
2019-04-26T14:31:38.610Z,27.48
2019-04-26T14:34:07.208Z,28.73
2019-04-26T14:36:35.735Z,27.30
2019-04-26T14:39:10.756Z,27.59
2019-04-26T14:41:38.845Z,28.13
2019-04-26T14:44:15.461Z,28.13
2019-04-26T14:46:48.204Z,28.84
2019-04-26T14:49:07.979Z,29.14
2019-04-26T14:51:36.497Z,28.47
2019-04-26T14:54:07.411Z,30.10
2019-04-26T14:56:35.764Z,28.86
2019-04-26T14:59:08.117Z,29.39
2019-04-26T15:01:52.303Z,29.19
2019-04-26T15:04:34.255Z,29.25
2019-04-26T15:07:05.443Z,29.73
2019-04-26T15:09:36.046Z,29.59
2019-04-26T15:12:03.599Z,28.85
2019-04-26T15:14:33.297Z,28.57
2019-04-26T15:17:02.775Z,27.66
2019-04-26T15:19:34.640Z,28.12
2019-04-26T15:22:04.070Z,29.23
2019-04-26T15:24:35.145Z,28.44
2019-04-26T15:27:03.405Z,28.71
2019-04-26T15:29:32.367Z,29.26
2019-04-26T15:32:00.889Z,29.48
2019-04-26T15:34:29.536Z,28.89
2019-04-26T15:36:58.203Z,28.45
2019-04-26T15:39:33.014Z,29.58
2019-04-26T15:42:03.268Z,28.64
2019-04-26T15:44:36.442Z,29.23
2019-04-26T15:47:10.306Z,29.74
2019-04-26T15:49:40.438Z,28.69
2019-04-26T15:52:09.055Z,29.47
2019-04-26T15:54:37.535Z,29.27
2019-04-26T15:57:06.801Z,30.40
2019-04-26T15:59:35.419Z,29.74
2019-04-26T16:02:04.015Z,29.34
2019-04-26T16:04:33.537Z,30.41
2019-04-26T16:07:02.557Z,30.54
2019-04-26T16:09:32.504Z,30.87
2019-04-26T16:12:01.195Z,30.44
2019-04-26T16:14:36.669Z,30.07
2019-04-26T16:17:04.837Z,29.87
2019-04-26T16:19:31.952Z,30.60
2019-04-26T16:22:00.450Z,30.79
2019-04-26T16:24:29.180Z,30.40
2019-04-26T16:26:57.843Z,31.31
2019-04-26T16:29:33.991Z,31.86
2019-04-26T16:32:21.977Z,31.71
2019-04-26T16:34:52.826Z,32.25
2019-04-26T16:37:23.644Z,32.73
2019-04-26T16:39:51.944Z,32.85
2019-04-26T16:42:20.810Z,31.91
2019-04-26T16:44:49.322Z,32.18
2019-04-26T16:47:17.842Z,32.22
2019-04-26T16:49:46.727Z,32.43
2019-04-26T16:52:15.208Z,32.41
2019-04-26T16:54:43.699Z,32.38
2019-04-26T16:57:12.517Z,32.57
2019-04-26T16:59:47.702Z,33.31
2019-04-26T17:02:15.557Z,33.27
2019-04-26T17:04:43.603Z,34.00
2019-04-26T17:07:13.443Z,34.67
2019-04-26T17:09:55.706Z,34.80
2019-04-26T17:12:15.061Z,34.83
2019-04-26T17:14:47.757Z,34.33
2019-04-26T17:17:14.242Z,34.99
2019-04-26T17:19:43.289Z,34.79
2019-04-26T17:22:41.990Z,34.98
2019-04-26T17:25:02.597Z,35.03
2019-04-26T17:27:32.875Z,35.38
2019-04-26T17:30:03.114Z,34.97
2019-04-26T17:32:35.019Z,35.03
2019-04-26T17:35:07.341Z,35.22
2019-04-26T17:37:34.998Z,34.97
2019-04-26T17:40:03.851Z,34.82
2019-04-26T17:42:36.472Z,34.64
2019-04-26T17:45:07.318Z,34.22
2019-04-26T17:47:39.865Z,34.81
2019-04-26T17:50:08.471Z,34.44
2019-04-26T17:52:37.753Z,34.21
2019-04-26T17:55:07.794Z,34.34
2019-04-26T17:57:37.225Z,34.58
2019-04-26T18:00:11.371Z,34.07
2019-04-26T18:02:41.931Z,34.14
2019-04-26T18:05:08.572Z,34.31
2019-04-26T18:07:43.354Z,34.78
2019-04-26T18:10:08.157Z,34.79
2019-04-26T18:12:40.682Z,34.58
2019-04-26T18:15:11.515Z,34.98
2019-04-26T18:17:40.469Z,35.04
2019-04-26T18:20:10.840Z,35.00
2019-04-26T18:22:53.209Z,35.10
2019-04-26T18:25:23.436Z,35.66
2019-04-26T18:27:53.492Z,35.49
2019-04-26T18:30:23.644Z,37.73
2019-04-26T18:32:52.286Z,38.88
2019-04-26T18:35:20.786Z,38.21
2019-04-26T18:37:50.241Z,37.77
2019-04-26T18:40:20.630Z,37.93
2019-04-26T18:42:49.150Z,38.07
2019-04-26T18:45:25.881Z,37.39
2019-04-26T18:47:47.948Z,37.21
2019-04-26T18:50:16.606Z,37.66
2019-04-26T18:53:03.415Z,38.55
2019-04-26T18:55:34.481Z,38.03
2019-04-26T18:58:05.356Z,37.53
2019-04-26T19:00:37.212Z,37.82
2019-04-26T19:03:05.949Z,37.24
2019-04-26T19:05:34.737Z,37.24
2019-04-26T19:08:05.124Z,37.08
2019-04-26T19:10:34.351Z,36.81
2019-04-26T19:13:13.686Z,36.85
2019-04-26T19:15:47.259Z,37.29
2019-04-26T19:18:23.301Z,37.20
2019-04-26T19:20:53.506Z,37.08
2019-04-26T19:23:24.427Z,37.09
2019-04-26T19:25:52.267Z,37.48
2019-04-26T19:28:22.334Z,38.02
2019-04-26T19:30:53.134Z,37.88
2019-04-26T19:33:21.675Z,38.08
2019-04-26T19:35:50.362Z,38.44
2019-04-26T19:38:18.895Z,38.28
2019-04-26T19:40:48.071Z,38.31
2019-04-26T19:43:28.305Z,38.66
2019-04-26T19:46:01.438Z,38.75
2019-04-26T19:48:49.544Z,38.78
2019-04-26T19:51:38.009Z,39.10
2019-04-26T19:54:08.188Z,38.92
2019-04-26T19:56:41.803Z,39.06
2019-04-26T19:59:12.133Z,39.24
2019-04-26T20:01:41.964Z,39.14
2019-04-26T20:04:11.290Z,38.83
2019-04-26T20:06:41.476Z,38.76
2019-04-26T20:09:11.882Z,38.99
2019-04-26T20:11:42.143Z,38.88
2019-04-26T20:14:12.527Z,38.65
2019-04-26T20:16:43.384Z,38.95
2019-04-26T20:19:15.069Z,38.83
2019-04-26T20:21:45.420Z,39.04
2019-04-26T20:24:12.824Z,39.45
2019-04-26T20:26:44.269Z,39.46
2019-04-26T20:29:12.849Z,39.29
2019-04-26T20:31:47.767Z,39.26
2019-04-26T20:34:18.377Z,39.58
2019-04-26T20:36:47.843Z,39.63
2019-04-26T20:39:21.003Z,40.15
2019-04-26T20:41:47.117Z,40.19
2019-04-26T20:44:15.649Z,39.99
2019-04-26T20:46:44.184Z,39.98
2019-04-26T20:49:12.744Z,40.14
2019-04-26T20:51:46.114Z,40.20
2019-04-26T20:54:16.430Z,40.07
2019-04-26T20:56:46.226Z,40.50
2019-04-26T20:59:16.752Z,41.90
2019-04-26T21:01:46.489Z,41.57
2019-04-26T21:04:33.891Z,41.23
2019-04-26T21:06:43.870Z,41.22
2019-04-26T21:09:14.015Z,41.52
2019-04-26T21:11:42.594Z,41.59
2019-04-26T21:14:12.320Z,42.26
2019-04-26T21:16:43.675Z,42.73
2019-04-26T21:19:13.793Z,42.38
2019-04-26T21:21:47.723Z,42.51
2019-04-26T21:24:13.352Z,43.22
2019-04-26T21:26:46.680Z,43.02
2019-04-26T21:29:20.441Z,42.78
2019-04-26T21:31:53.589Z,42.60
2019-04-26T21:34:23.732Z,42.49
2019-04-26T21:37:00.362Z,43.17
2019-04-26T21:39:30.525Z,43.07
2019-04-26T21:42:12.303Z,43.98
2019-04-26T21:44:44.680Z,44.32
2019-04-26T21:47:11.040Z,44.55
2019-04-26T21:49:39.587Z,44.43
2019-04-26T21:52:08.191Z,44.94
2019-04-26T21:54:36.690Z,45.37
2019-04-26T21:57:05.279Z,45.92
2019-04-26T21:59:40.625Z,45.75
2019-04-26T22:02:06.802Z,45.82
2019-04-26T22:04:37.688Z,46.09
2019-04-26T22:07:07.805Z,46.58
2019-04-26T22:09:40.586Z,47.11
2019-04-26T22:12:10.909Z,47.14
2019-04-26T22:14:41.113Z,48.06
2019-04-26T22:17:27.224Z,47.63
2019-04-26T22:20:15.812Z,47.55
2019-04-26T22:22:50.656Z,48.32
2019-04-26T22:25:20.863Z,47.96
2019-04-26T22:27:49.389Z,47.59
2019-04-26T22:30:28.178Z,47.48
2019-04-26T22:32:58.114Z,48.14
2019-04-26T22:35:22.854Z,48.95
2019-04-26T22:37:51.425Z,48.44
2019-04-26T22:40:20.004Z,48.50
2019-04-26T22:42:50.255Z,48.64
2019-04-26T22:45:39.598Z,49.40
2019-04-26T22:48:16.334Z,49.43
2019-04-26T22:50:43.589Z,49.60
2019-04-26T22:53:12.315Z,50.03
2019-04-26T22:55:40.812Z,49.77
2019-04-26T22:58:09.328Z,48.91
2019-04-26T23:00:39.117Z,48.80
2019-04-26T23:03:08.055Z,50.43
2019-04-26T23:05:39.103Z,50.52
2019-04-26T23:08:07.295Z,50.04
2019-04-26T23:10:43.275Z,49.82
2019-04-26T23:13:23.146Z,50.80
2019-04-26T23:15:53.429Z,51.75
2019-04-26T23:18:42.570Z,51.55
2019-04-26T23:21:26.640Z,50.86
2019-04-26T23:23:55.131Z,51.17
2019-04-26T23:26:23.633Z,51.71
2019-04-26T23:28:53.514Z,50.88
2019-04-26T23:31:23.611Z,50.38
2019-04-26T23:33:53.734Z,50.57
2019-04-26T23:36:23.972Z,52.01
2019-04-26T23:38:53.195Z,52.81
2019-04-26T23:41:23.609Z,52.03
2019-04-26T23:43:56.481Z,53.29
2019-04-26T23:46:25.706Z,53.26
2019-04-26T23:48:53.861Z,52.77
2019-04-26T23:51:23.814Z,53.56
2019-04-26T23:53:54.944Z,52.87
2019-04-26T23:56:25.261Z,51.78
2019-04-26T23:58:53.261Z,51.22
